createdAt,value
2023-02-07T00:04:18.496Z,57.55
2023-02-07T00:09:21.191Z,57.46
2023-02-07T00:14:24.851Z,57.76
2023-02-07T00:19:28.269Z,58.00
2023-02-07T00:24:31.633Z,58.02
2023-02-07T00:29:34.256Z,57.61
2023-02-07T00:34:37.238Z,57.23
2023-02-07T00:39:40.690Z,57.49
2023-02-07T00:44:44.117Z,57.89
2023-02-07T00:49:46.417Z,57.76
2023-02-07T00:54:49.391Z,57.21
2023-02-07T00:59:54.526Z,57.33
2023-02-07T01:04:56.858Z,58.96
2023-02-07T01:09:59.784Z,57.23
2023-02-07T01:15:03.138Z,57.98
2023-02-07T01:20:06.270Z,57.69
2023-02-07T01:25:09.896Z,58.33
2023-02-07T01:30:13.150Z,58.40
2023-02-07T01:35:16.208Z,58.40
2023-02-07T01:40:18.936Z,59.15
2023-02-07T01:45:28.270Z,59.19
2023-02-07T01:50:31.419Z,58.63
2023-02-07T01:55:37.990Z,58.74
2023-02-07T02:00:41.088Z,58.73
2023-02-07T02:05:46.059Z,58.64
2023-02-07T02:10:59.388Z,58.80
2023-02-07T02:16:31.493Z,58.44
2023-02-07T02:22:18.409Z,57.93
2023-02-07T02:28:05.377Z,57.27
2023-02-07T02:33:24.017Z,57.79
2023-02-07T02:38:45.815Z,58.51
2023-02-07T02:44:03.952Z,58.45
2023-02-07T02:49:10.401Z,58.97
2023-02-07T02:54:33.870Z,57.61
2023-02-07T02:59:58.928Z,58.06
2023-02-07T03:05:01.692Z,58.05
2023-02-07T03:10:27.351Z,57.69
2023-02-07T03:15:55.435Z,59.24
2023-02-07T03:21:11.200Z,58.29
2023-02-07T03:26:14.836Z,58.69
2023-02-07T03:31:20.166Z,58.68
2023-02-07T03:36:34.884Z,59.62
2023-02-07T03:41:44.680Z,59.53
2023-02-07T03:46:53.077Z,59.21
2023-02-07T03:51:56.065Z,58.85
2023-02-07T03:56:58.663Z,58.68
2023-02-07T04:02:01.065Z,60.04
2023-02-07T04:07:04.349Z,59.10
2023-02-07T04:12:06.999Z,59.21
2023-02-07T04:17:09.446Z,59.10
2023-02-07T04:22:12.363Z,59.53
2023-02-07T04:27:15.004Z,58.39
2023-02-07T04:32:17.803Z,58.01
2023-02-07T04:37:20.185Z,59.47
2023-02-07T04:42:23.099Z,60.03
2023-02-07T04:47:26.230Z,59.25
2023-02-07T04:52:28.742Z,60.04
2023-02-07T04:57:31.765Z,58.97
2023-02-07T05:02:35.312Z,58.87
2023-02-07T05:07:38.294Z,58.90
2023-02-07T05:12:41.810Z,57.90
2023-02-07T05:17:44.698Z,57.54
2023-02-07T05:22:49.221Z,55.94
2023-02-07T05:27:52.998Z,56.36
2023-02-07T05:33:04.512Z,56.26
2023-02-07T05:38:15.027Z,57.60
2023-02-07T05:43:23.693Z,56.59
2023-02-07T05:48:27.509Z,56.35
2023-02-07T05:53:31.357Z,56.29
2023-02-07T05:58:34.392Z,55.43
2023-02-07T06:03:37.248Z,55.90
2023-02-07T06:08:40.759Z,55.96
2023-02-07T06:13:43.225Z,55.19
2023-02-07T06:18:46.052Z,54.81
2023-02-07T06:23:53.998Z,56.85
2023-02-07T06:28:57.474Z,54.38
2023-02-07T06:34:04.246Z,53.27
2023-02-07T06:39:15.963Z,51.97
2023-02-07T06:44:21.351Z,51.18
2023-02-07T06:49:24.045Z,50.11
2023-02-07T06:54:26.592Z,49.31
2023-02-07T06:59:29.594Z,49.51
2023-02-07T07:04:33.080Z,50.26
2023-02-07T07:09:36.897Z,49.41
2023-02-07T07:14:39.443Z,49.60
2023-02-07T07:19:42.322Z,50.25
2023-02-07T07:24:46.030Z,50.50
2023-02-07T07:29:48.976Z,51.92
2023-02-07T07:34:53.351Z,52.04
2023-02-07T07:39:57.198Z,52.22
2023-02-07T07:45:01.889Z,52.85
2023-02-07T07:50:07.842Z,52.67
2023-02-07T07:55:16.904Z,52.99
2023-02-07T08:00:22.365Z,52.91
2023-02-07T08:05:26.652Z,53.64
2023-02-07T08:10:29.884Z,53.89
2023-02-07T08:15:36.601Z,53.50
2023-02-07T08:20:40.281Z,53.60
2023-02-07T08:26:05.057Z,53.18
2023-02-07T08:31:13.520Z,53.44
2023-02-07T08:36:17.230Z,52.44
2023-02-07T08:41:21.293Z,53.26
2023-02-07T08:46:25.523Z,53.96
2023-02-07T08:51:30.973Z,53.98
2023-02-07T08:56:34.490Z,54.43
2023-02-07T09:01:38.668Z,53.91
2023-02-07T09:06:43.146Z,54.49
2023-02-07T09:11:51.358Z,54.46
2023-02-07T09:16:54.338Z,54.22
2023-02-07T09:21:56.913Z,53.42
2023-02-07T09:27:03.080Z,53.62
2023-02-07T09:32:07.773Z,53.53
2023-02-07T09:37:10.910Z,53.77
2023-02-07T09:42:52.351Z,54.44
2023-02-07T09:48:02.285Z,53.34
2023-02-07T09:53:24.426Z,53.19
2023-02-07T09:58:41.638Z,53.92
2023-02-07T10:04:12.163Z,52.37
2023-02-07T10:09:19.475Z,54.14
2023-02-07T10:14:48.946Z,52.07
2023-02-07T10:20:22.607Z,52.58
2023-02-07T10:25:54.861Z,52.42
2023-02-07T10:31:03.873Z,51.95
2023-02-07T10:36:15.530Z,53.27
2023-02-07T10:41:35.968Z,51.79
2023-02-07T10:46:44.603Z,52.00
2023-02-07T10:51:48.174Z,52.09
2023-02-07T10:57:02.151Z,52.27
2023-02-07T11:02:34.244Z,53.93
2023-02-07T11:07:47.164Z,53.99
2023-02-07T11:12:56.496Z,54.48
2023-02-07T11:18:01.677Z,55.16
2023-02-07T11:23:16.213Z,54.82
2023-02-07T11:28:23.776Z,54.77
2023-02-07T11:33:30.635Z,55.20
2023-02-07T11:45:35.009Z,55.54
2023-02-07T11:50:42.162Z,55.91
2023-02-07T11:55:46.903Z,55.66
2023-02-07T12:00:50.204Z,55.76
2023-02-07T12:06:02.660Z,56.02
2023-02-07T12:11:14.461Z,56.25
2023-02-07T12:16:32.938Z,56.52
2023-02-07T12:22:36.473Z,56.48
2023-02-07T12:27:50.015Z,56.12
2023-02-07T12:33:12.795Z,55.44
2023-02-07T12:38:30.231Z,55.97
2023-02-07T12:43:44.679Z,55.31
2023-02-07T12:49:40.998Z,55.35
2023-02-07T12:55:09.495Z,54.82
2023-02-07T13:00:57.112Z,55.42
2023-02-07T13:06:11.242Z,55.35
2023-02-07T13:11:42.486Z,55.97
2023-02-07T13:16:59.260Z,56.24
2023-02-07T13:22:19.297Z,56.47
2023-02-07T13:27:26.623Z,56.43
2023-02-07T13:32:30.108Z,57.21
2023-02-07T13:37:51.185Z,56.68
2023-02-07T13:49:24.030Z,57.23
2023-02-07T13:54:56.272Z,57.53
2023-02-07T14:00:20.974Z,57.67
2023-02-07T14:05:37.197Z,58.11
2023-02-07T14:11:18.447Z,58.57
2023-02-07T14:16:48.019Z,59.22
2023-02-07T14:22:26.598Z,59.40
2023-02-07T14:27:41.246Z,59.79
2023-02-07T14:33:05.455Z,59.55
2023-02-07T14:38:08.988Z,59.72
2023-02-07T14:43:13.862Z,60.04
2023-02-07T14:48:41.808Z,59.56
2023-02-07T14:53:48.220Z,59.49
2023-02-07T14:58:54.738Z,58.95
2023-02-07T15:04:06.638Z,59.41
2023-02-07T15:09:23.328Z,59.26
2023-02-07T15:14:32.871Z,59.41
2023-02-07T15:19:39.195Z,60.36
2023-02-07T15:24:51.377Z,61.13
2023-02-07T15:29:58.722Z,59.48
2023-02-07T15:35:13.314Z,60.60
2023-02-07T15:40:18.243Z,60.45
2023-02-07T15:45:32.127Z,60.02
2023-02-07T15:50:34.875Z,60.25
2023-02-07T15:55:46.824Z,60.15
2023-02-07T16:00:49.675Z,60.49
2023-02-07T16:06:02.574Z,60.21
2023-02-07T16:11:26.192Z,58.81
2023-02-07T16:16:35.655Z,60.10
2023-02-07T16:21:38.317Z,60.37
2023-02-07T16:26:41.227Z,60.72
2023-02-07T16:31:44.842Z,59.97
2023-02-07T16:36:51.012Z,59.61
2023-02-07T16:42:15.668Z,59.40
2023-02-07T16:47:19.336Z,60.36
2023-02-07T16:52:22.176Z,59.52
2023-02-07T16:57:25.228Z,59.25
2023-02-07T17:02:27.684Z,59.63
2023-02-07T17:07:30.544Z,59.05
2023-02-07T17:12:32.899Z,59.70
2023-02-07T17:17:35.618Z,58.97
2023-02-07T17:22:38.758Z,59.54
2023-02-07T17:27:41.124Z,59.17
2023-02-07T17:32:45.268Z,59.32
2023-02-07T17:37:51.354Z,59.28
2023-02-07T17:42:54.539Z,59.33
2023-02-07T17:47:57.446Z,58.83
2023-02-07T17:53:03.399Z,58.90
2023-02-07T17:58:07.217Z,58.79
2023-02-07T18:03:09.944Z,58.49
2023-02-07T18:08:14.295Z,59.38
2023-02-07T18:13:17.010Z,59.81
2023-02-07T18:18:19.449Z,59.93
2023-02-07T18:23:21.793Z,59.84
2023-02-07T18:28:24.320Z,59.51
2023-02-07T18:33:27.566Z,59.48
2023-02-07T18:38:30.071Z,59.43
2023-02-07T18:43:32.441Z,59.68
2023-02-07T18:48:35.041Z,59.74
2023-02-07T18:53:39.329Z,59.53
2023-02-07T18:58:42.509Z,58.90
2023-02-07T19:03:47.185Z,59.95
2023-02-07T19:08:49.992Z,59.66
2023-02-07T19:13:52.658Z,60.62
2023-02-07T19:18:58.155Z,59.54
2023-02-07T19:24:05.303Z,59.44
2023-02-07T19:29:08.016Z,60.41
2023-02-07T19:34:12.416Z,60.50
2023-02-07T19:39:14.944Z,60.28
2023-02-07T19:44:17.538Z,60.16
2023-02-07T19:49:20.704Z,59.87
2023-02-07T19:54:24.061Z,59.82
2023-02-07T19:59:26.577Z,59.89
2023-02-07T20:04:28.883Z,58.47
2023-02-07T20:09:32.011Z,59.11
2023-02-07T20:14:35.096Z,59.32
2023-02-07T20:19:38.386Z,59.24
2023-02-07T20:24:40.740Z,59.33
2023-02-07T20:29:43.023Z,58.93
2023-02-07T20:34:46.421Z,58.30
2023-02-07T20:39:48.863Z,59.45
2023-02-07T20:44:51.616Z,59.52
2023-02-07T20:49:54.906Z,59.08
2023-02-07T20:54:58.245Z,60.06
2023-02-07T21:00:01.644Z,59.55
2023-02-07T21:05:06.261Z,59.92
2023-02-07T21:10:08.994Z,60.12
2023-02-07T21:15:12.574Z,59.91
2023-02-07T21:20:16.355Z,60.59
2023-02-07T21:25:20.755Z,59.76
2023-02-07T21:30:23.705Z,59.97
2023-02-07T21:35:26.182Z,60.00
2023-02-07T21:40:29.337Z,60.16
2023-02-07T21:45:32.298Z,60.21
2023-02-07T21:50:35.117Z,60.46
2023-02-07T21:55:39.239Z,60.46
2023-02-07T22:00:41.792Z,59.87
2023-02-07T22:05:44.924Z,59.91
2023-02-07T22:10:47.755Z,59.69
2023-02-07T22:15:51.308Z,59.99
2023-02-07T22:20:53.987Z,59.24
2023-02-07T22:25:58.320Z,59.56
2023-02-07T22:31:01.730Z,59.29
2023-02-07T22:36:05.822Z,58.83
2023-02-07T22:41:08.760Z,58.89
2023-02-07T22:46:17.067Z,59.99
2023-02-07T22:51:22.411Z,59.61
2023-02-07T22:56:27.281Z,59.35
2023-02-07T23:01:37.516Z,58.75
2023-02-07T23:06:40.096Z,58.38
2023-02-07T23:11:42.663Z,59.37
2023-02-07T23:16:45.898Z,58.78
2023-02-07T23:21:48.559Z,58.69
2023-02-07T23:26:50.991Z,58.49
2023-02-07T23:31:53.447Z,58.68
2023-02-07T23:36:56.980Z,58.45
2023-02-07T23:41:59.359Z,58.64
2023-02-07T23:47:01.884Z,58.91
2023-02-07T23:52:04.941Z,59.10
2023-02-07T23:57:07.895Z,58.63
